GQPA/ATR METAR and TAF weather

Enter ICAO airport designator
Station Type Date Time Source
GQPA METAR 2022/12/03 09:00 UTC NOAA

GQPA 030900Z 04008KT CAVOK 18/M02 Q1013


Station Type Date Time Source
GQPA Decoded METAR 2022/12/03 09:00 UTC NOAA

Atar, Mauritania (GQPA) 20-31N 013-04W 224M
Dec 03, 2022 - 04:00 AM EST / 2022.12.03 0900 UTC
Wind: from the NE (040 degrees) at 9 MPH (8 KT):0
Visibility: greater than 7 mile(s):0
Temperature: 64 F (18 C)
Dew Point: 28 F (-2 C)
Relative Humidity: 25%
Pressure (altimeter): 29.91 in. Hg (1013 hPa)
ob: GQPA 030900Z 04008KT CAVOK 18/M02 Q1013
cycle: 9

Station Type Date Time Source
GQPA TAF UTC NOAA

Error!

Example: see airport list